Tiempo atmosférico en la estación meteorológica de Cáseda, Navarra (440 m.)

Fecha
DESCASC
Temp. máxima en grados centígrados (hora)
DESCASC
Temp. mínima en grados centígrados (hora)
DESCASC
Temp. media en grados centígrados
DESCASC
Racha de viento máxima en m/sg (hora)
DESCASC
Velocidad máxima media en intervalos de 10 minutos(hora)
DESCASC
Precipitaciones diarias en mm
DESCASC
Precipitaciones de 00:00 a 06:00 en mm
DESCASC
Precipitaciones de 06:00 a 12:00 en mm
DESCASC
Precipitaciones de 12:00 a 18:00 en mm
DESCASC
Precipitaciones de 18:00 a 24:00 en mm
DESCASC
10-12-2017 12.8 (23:00) 4.3 (07:50) 8.6 20.28 (23:59) 12.5 (23:59) 2.2 0 0.2 1.4 0.6
09-12-2017 9.1 (13:50) 3.6 (07:40) 6.4 8.61 (01:00) 4.44 (01:20) 2.4 0 0 0 2.4
08-12-2017 10.7 (14:20) 1.7 (02:00) 6.2 8.89 (18:20) 5.83 (16:40) 0 0 0 0 0
07-12-2017 6.6 (16:30) -3.8 (-00:0) 1.4 3.33 (18:00) 2.22 (17:30) 0 0 0 0 0
06-12-2017 4 (16:20) -4 (-00:0) 0 1.94 (02:00) 1.39 (19:00) 0 0 0 0 0
05-12-2017 7.7 (15:10) -3.4 (-00:0) 2.1 2.5 (00:10) 1.67 (05:40) 0 0 0 0 0
04-12-2017 10.4 (13:40) 1.7 (00:00) 6 10.56 (03:00) 5.28 (14:10) 0 0 0 0 0
03-12-2017 5.5 (12:30) -0.6 (-00:0) 2.4 12.78 (06:20) 7.22 (08:00) 0 0 0 0 0
02-12-2017 3.7 (14:40) -0.6 (-00:0) 1.6 17.5 (17:30) 8.33 (15:00) 0 0 0 0 0
01-12-2017 4.3 (02:20) 0 (00:00) 2.2 11.67 (12:40) 6.67 (12:40) 5.6 0.6 2.4 0.2 2.4
30-11-2017 7.6 (13:30) 0.4 (00:00) 4 8.61 (15:00) 5 (14:40) 0 0 0 0 0
29-11-2017 9.5 (13:50) 1.8 (00:00) 5.6 9.72 (16:30) 6.11 (16:50) 0 0 0 0 0
28-11-2017 9 (15:10) -4 (-00:0) 2.5 3.61 (19:30) 2.78 (19:30) 0 0 0 0 0
27-11-2017 9.1 (15:20) -0.7 (-00:0) 4.2 4.72 (00:10) 2.5 (00:10) 0 0 0 0 0
26-11-2017 10.7 (13:10) 4.4 (00:00) 7.5 10.28 (14:30) 5.56 (14:30) 0 0 0 0 0
25-11-2017 11.9 (12:30) 4.9 (00:00) 8.4 11.67 (12:50) 6.39 (12:50) 2.2 2 0 0.2 0
24-11-2017 12.8 (14:00) 6.2 (00:00) 9.5 6.11 (15:50) 2.78 (15:50) 0.8 0.2 0 0.4 0.2
23-11-2017 18.5 (14:40) 4.2 (00:00) 11.3 6.67 (14:50) 4.72 (15:00) 0 0 0 0 0
22-11-2017 14.2 (15:40) -1.9 (-00:0) 6.1 3.89 (22:30) 2.78 (22:30) 0 0 0 0 0
21-11-2017 13.3 (15:20) -0.8 (-00:0) 6.3 2.22 (03:40) 1.39 (17:20) 0 0 0 0 0
20-11-2017 13.5 (15:10) -0.6 (-00:0) 6.4 2.5 (17:50) 1.94 (18:00) 0 0 0 0 0
19-11-2017 13.5 (15:40) -0.1 (00:00) 6.7 5 (01:00) 3.06 (00:50) 0 0 0 0 0
18-11-2017 15.6 (14:20) 6.2 (00:00) 10.9 7.78 (13:20) 4.17 (14:00) 0 0 0 0 0
17-11-2017 15.6 (15:30) 0.5 (00:00) 8.1 7.22 (22:10) 4.17 (23:30) 0 0 0 0 0
16-11-2017 14.8 (15:50) -1.4 (-00:0) 6.7 5.83 (16:10) 3.89 (16:30) 0 0 0 0 0
15-11-2017 11.9 (15:40) -1.9 (-00:0) 5 3.89 (05:00) 2.5 (04:50) 0 0 0 0 0

Gráficas

Temp. máximas Temp. mínimas Temp. medias Precipitaciones Rachas de viento máximas Velocidades máximas media en intervalos de 10 minutos

Datos horarios

Fecha y hora oficial Temperatura (ºC) Velocidad del viento (km/h) Dirección del viento Racha (km/h) Dirección de racha Precipitación (mm) Presión (hPa) Tendencia (hPa) Humedad (%)
2017-12-14 23:00:00 7.7 5 Sur 6 Sur 1.4 -- -- 97
2017-12-14 22:00:00 7.9 2 Este 5 Oeste 0.6 -- -- 96
2017-12-14 21:00:00 8 3 Sudoeste 13 Sur 0.4 -- -- 95
2017-12-14 20:00:00 7.9 2 Sur 6 Sur 0 -- -- 94
2017-12-14 19:00:00 8.3 4 Sudoeste 7 Sur 0 -- -- 94
2017-12-14 18:00:00 8.6 0 Calma 8 Sur 0 -- -- 94
2017-12-14 17:00:00 8.9 3 Sudoeste 6 Sudoeste 0 -- -- 94
2017-12-14 16:00:00 9 4 Noroeste 6 Noroeste 0 -- -- 93
2017-12-14 15:00:00 9.1 3 Noroeste 8 Noroeste 0 -- -- 92
2017-12-14 14:00:00 8.9 4 Noroeste 7 Noroeste 0 -- -- 94
2017-12-14 13:00:00 8 4 Nordeste 6 Nordeste 0 -- -- 96
2017-12-14 12:00:00 7.2 4 Nordeste 5 Nordeste 0 -- -- 98
2017-12-14 11:00:00 5.7 0 Calma 3 Sudoeste 0 -- -- 98
2017-12-14 10:00:00 4.7 0 Calma 5 Nordeste 0.4 -- -- 97
2017-12-14 09:00:00 4.5 2 Sudeste 5 Sur 0.4 -- -- 98
2017-12-14 08:00:00 4.2 3 Sur 8 Sur 0.4 -- -- 97
2017-12-14 07:00:00 4.3 0 Calma 6 Sur 0.4 -- -- 97
2017-12-14 06:00:00 4.3 6 Sur 7 Sur 0.8 -- -- 97
2017-12-14 05:00:00 4.1 2 Oeste 5 Sudoeste 0.4 -- -- 96
2017-12-14 04:00:00 4 2 Noroeste 8 Sur 0.8 -- -- 96
2017-12-14 03:00:00 4 2 Norte 9 Sur 0.2 -- -- 95
2017-12-14 02:00:00 4 4 Nordeste 8 Sur 0.2 -- -- 94
2017-12-14 01:00:00 4.1 3 Sudeste 6 Sur 0 -- -- 93
2017-12-14 00:00:00 4.2 4 Sudoeste 7 Sudoeste 0 -- -- 92
2017-12-13 23:00:00 4 2 Noroeste 7 Sur 0 -- -- 90
2017-12-13 22:00:00 4 4 Sur 6 Oeste 0 -- -- 90
2017-12-13 21:00:00 4.5 2 Nordeste 8 Sur 0 -- -- 85
2017-12-13 20:00:00 4.2 3 Este 6 Sur 0 -- -- 83
2017-12-13 19:00:00 4 5 Sudoeste 7 Sudoeste 0 -- -- 84
2017-12-13 18:00:00 4.3 2 Noroeste 4 Nordeste 0 -- -- 79
2017-12-13 17:00:00 4.8 3 Nordeste 7 Norte 0 -- -- 77
2017-12-13 16:00:00 4.8 0 Calma 5 Norte 0 -- -- 73
2017-12-13 15:00:00 4 4 Noroeste 6 Noroeste 0 -- -- 73
2017-12-13 14:00:00 3.2 4 Nordeste 6 Nordeste 0 -- -- 81
2017-12-13 13:00:00 2.2 3 Noroeste 7 Oeste 0 -- -- 84
2017-12-13 12:00:00 1.2 0 Calma 8 Norte 0 -- -- 89
2017-12-13 11:00:00 0.6 3 Sur 5 Sur 0 -- -- 94
2017-12-13 10:00:00 -0.4 0 Calma 4 Nordeste 0 -- -- 94
2017-12-13 09:00:00 -0.7 0 Calma 5 Sudoeste 0 -- -- 94
2017-12-13 08:00:00 -1.5 4 Oeste 6 Oeste 0 -- -- 94
2017-12-13 07:00:00 -1.8 0 Calma 6 Sur 0 -- -- 92
2017-12-13 06:00:00 -1.1 2 Oeste 7 Sudoeste 0 -- -- 92
2017-12-13 05:00:00 -1.4 4 Oeste 9 Sudoeste 0 -- -- 93
2017-12-13 04:00:00 -1.2 4 Sudoeste 8 Sudoeste 0 -- -- 93
2017-12-13 03:00:00 -0.8 5 Sudoeste 9 Sudoeste 0 -- -- 93
2017-12-13 02:00:00 -0.6 5 Sudeste 8 Sur 0 -- -- 93
2017-12-13 01:00:00 -0.4 5 Oeste 9 Oeste 0 -- -- 92
2017-12-13 00:00:00 0 0 Calma 7 Oeste 0 -- -- 91
2017-12-12 23:00:00 0.9 2 Nordeste 9 Sur 0 -- -- 87
2017-12-12 22:00:00 1 3 Sur 14 Sur 0 -- -- 85
2017-12-12 21:00:00 2 4 Sur 10 Sur 0 -- -- 84
2017-12-12 20:00:00 2.9 3 Oeste 11 Sudoeste 0 -- -- 80
2017-12-12 19:00:00 3.8 4 Sudoeste 10 Sudoeste 0 -- -- 77
2017-12-12 18:00:00 5.2 7 Sudoeste 16 Oeste 0 -- -- 72
2017-12-12 17:00:00 7.1 13 Oeste 24 Oeste 0 -- -- 67
2017-12-12 16:00:00 7.4 12 Oeste 26 Oeste 0 -- -- 64
2017-12-12 15:00:00 8.6 12 Noroeste 23 Oeste 0 -- -- 57
2017-12-12 14:00:00 8.4 12 Norte 23 Nordeste 0 -- -- 62
2017-12-12 13:00:00 7.8 13 Norte 20 Nordeste 0 -- -- 60
2017-12-12 12:00:00 7.1 6 Norte 17 Oeste 0 -- -- 69
2017-12-12 11:00:00 5.4 7 Noroeste 13 Oeste 0 -- -- 76
2017-12-12 10:00:00 3.5 9 Oeste 15 Oeste 0 -- -- 83
2017-12-12 09:00:00 2.4 9 Oeste 18 Oeste 0 -- -- 84
2017-12-12 08:00:00 2.3 10 Noroeste 18 Noroeste 0 -- -- 84
2017-12-12 07:00:00 2.1 7 Noroeste 14 Oeste 0 -- -- 86
2017-12-12 06:00:00 2.7 4 Noroeste 19 Oeste 0 -- -- 86
2017-12-12 05:00:00 3 6 Oeste 13 Oeste 0 -- -- 86
2017-12-12 04:00:00 3.1 10 Oeste 14 Oeste 0 -- -- 86
2017-12-12 03:00:00 3.2 9 Oeste 21 Oeste 0 -- -- 83
2017-12-12 02:00:00 3.8 8 Sudoeste 21 Noroeste 0 -- -- 78
2017-12-12 01:00:00 4.5 12 Oeste 18 Oeste 0 -- -- 77
2017-12-12 00:00:00 4.5 9 Sudoeste 22 Noroeste 0 -- -- 82
2017-12-11 23:00:00 4.7 11 Noroeste 22 Oeste 0 -- -- 80
2017-12-11 22:00:00 5.1 13 Oeste 19 Oeste 0 -- -- 78
2017-12-11 21:00:00 5.3 7 Oeste 24 Sudoeste 0 -- -- 82
2017-12-11 20:00:00 5.5 10 Oeste 21 Sudoeste 0 -- -- 85
2017-12-11 19:00:00 5.3 9 Sudoeste 30 Oeste 0.6 -- -- 86
2017-12-11 18:00:00 7.1 20 Noroeste 43 Oeste 0 -- -- 78
2017-12-11 17:00:00 8.4 8 Oeste 40 Oeste 0 -- -- 65
2017-12-11 16:00:00 9.5 19 Oeste 49 Oeste 0 -- -- 60
2017-12-11 15:00:00 10.1 20 Oeste 38 Oeste 0 -- -- 58
2017-12-11 14:00:00 9.3 13 Noroeste 34 Oeste 0 -- -- 66
2017-12-11 13:00:00 8.8 4 Noroeste 13 Noroeste 0 -- -- 71
2017-12-11 12:00:00 7.6 3 Norte 10 Norte 0 -- -- 85
2017-12-11 11:00:00 6.5 7 Oeste 19 Oeste 0 -- -- 84
2017-12-11 10:00:00 6.7 12 Oeste 24 Oeste 0.2 -- -- 86
2017-12-11 09:00:00 7.1 10 Noroeste 26 Oeste 0.8 -- -- 91
2017-12-11 08:00:00 7.4 4 Oeste 15 Sur 0.2 -- -- 89
2017-12-11 07:00:00 8.3 8 Oeste 13 Sudoeste 0 -- -- 79
2017-12-11 06:00:00 8.9 9 Oeste 34 Oeste 0 -- -- 76
2017-12-11 05:00:00 9.8 16 Oeste 38 Oeste 1.4 -- -- 75
2017-12-11 04:00:00 9.6 24 Oeste 88 Oeste 2.8 -- -- 84
2017-12-11 03:00:00 13.2 25 Sur 63 Sur 0 -- -- 67
2017-12-11 02:00:00 13.1 23 Sur 57 Sudeste 0 -- -- 67
2017-12-11 01:00:00 12.3 35 Sur 72 Sur 0.2 -- -- 75
2017-12-11 00:00:00 12.8 45 Sur 73 Sur 0 -- -- 70
2017-12-10 23:00:00 12.8 41 Sur 58 Sur 0 -- -- 71
2017-12-10 22:00:00 12.3 40 Sur 62 Sur 0 -- -- 74
2017-12-10 21:00:00 11.9 36 Sur 57 Sur 0 -- -- 76
2017-12-10 20:00:00 11.5 38 Sur 59 Sur 0 -- -- 78
2017-12-10 19:00:00 11.2 37 Sur 55 Sur 0.6 -- -- 81
2017-12-10 18:00:00 10.7 31 Sur 50 Sur 0.4 -- -- 85
2017-12-10 17:00:00 10.8 33 Sur 50 Sur 0 -- -- 84
2017-12-10 16:00:00 10.3 22 Sur 36 Sur 0.4 -- -- 91
2017-12-10 15:00:00 6.6 4 Noroeste 9 Noroeste 0.4 -- -- 97
2017-12-10 14:00:00 6.3 0 Calma 8 Noroeste 0 -- -- 96
2017-12-10 13:00:00 6.4 0 Calma 6 Nordeste 0.2 -- -- 96
2017-12-10 12:00:00 6.6 4 Sudoeste 9 Sur 0.2 -- -- 97
2017-12-10 11:00:00 5.8 6 Sudoeste 9 Sur 0 -- -- 97
2017-12-10 10:00:00 5 4 Sudoeste 8 Oeste 0 -- -- 97
2017-12-10 09:00:00 4.5 0 Calma 9 Sudoeste 0 -- -- 96
2017-12-10 08:00:00 4.4 5 Sudoeste 8 Sudoeste 0 -- -- 96
2017-12-10 07:00:00 4.6 2 Sur 6 Sur 0 -- -- 96
2017-12-10 06:00:00 4.8 3 Oeste 7 Noroeste 0 -- -- 96
2017-12-10 05:00:00 4.8 2 Norte 7 Sudoeste 0 -- -- 95
2017-12-10 04:00:00 4.9 2 Sudoeste 6 Sudoeste 0 -- -- 95
2017-12-10 03:00:00 5 4 Sur 6 Sur 0 -- -- 95
2017-12-10 02:00:00 5.1 3 Oeste 5 Noroeste 0 -- -- 95
2017-12-10 01:00:00 5.1 0 Calma 8 Oeste 0 -- -- 95
2017-12-10 00:00:00 5.1 3 Oeste 8 Oeste 0 -- -- 95
2017-12-09 23:00:00 5.1 3 Oeste 8 Oeste 0.2 -- -- 95
2017-12-09 22:00:00 5.2 4 Oeste 6 Oeste 0 -- -- 94
2017-12-09 21:00:00 5.3 0 Calma 7 Noroeste 0.8 -- -- 93
2017-12-09 20:00:00 5.6 0 Calma 5 Este 0.6 -- -- 90
2017-12-09 19:00:00 6.1 0 Calma 7 Nordeste 0.8 -- -- 86
2017-12-09 18:00:00 6.7 5 Este 12 Este 0 -- -- 78
2017-12-09 17:00:00 7.7 5 Este 8 Este 0 -- -- 68
2017-12-09 16:00:00 8.2 2 Nordeste 5 Nordeste 0 -- -- 65
2017-12-09 15:00:00 8.4 3 Sudeste 17 Norte 0 -- -- 62
2017-12-09 14:00:00 9.1 11 Noroeste 21 Noroeste 0 -- -- 59
2017-12-09 13:00:00 8.5 12 Noroeste 26 Noroeste 0 -- -- 63
2017-12-09 12:00:00 7.9 13 Noroeste 25 Noroeste 0 -- -- 65
2017-12-09 11:00:00 6.8 11 Norte 22 Noroeste 0 -- -- 68
2017-12-09 10:00:00 5.1 13 Noroeste 20 Noroeste 0 -- -- 75
2017-12-09 09:00:00 3.7 8 Noroeste 18 Noroeste 0 -- -- 82
2017-12-09 08:00:00 3.7 10 Noroeste 16 Noroeste 0 -- -- 82
2017-12-09 07:00:00 4.1 9 Noroeste 22 Noroeste 0 -- -- 83
2017-12-09 06:00:00 4.7 13 Noroeste 27 Noroeste 0 -- -- 80
2017-12-09 05:00:00 5 11 Norte 25 Noroeste 0 -- -- 80
2017-12-09 04:00:00 5.5 11 Norte 26 Norte 0 -- -- 81
2017-12-09 03:00:00 5.9 11 Norte 25 Noroeste 0 -- -- 81
2017-12-09 02:00:00 5.9 12 Norte 30 Norte 0 -- -- 80
2017-12-09 01:00:00 5.8 13 Norte 31 Noroeste 0 -- -- 82
2017-12-09 00:00:00 6.1 13 Norte 30 Norte 0 -- -- 80
2017-12-08 23:00:00 6 8 Noroeste 21 Noroeste 0 -- -- 82
2017-12-08 22:00:00 6.5 7 Noroeste 26 Noroeste 0 -- -- 79
2017-12-08 21:00:00 7 8 Noroeste 27 Noroeste 0 -- -- 78
2017-12-08 20:00:00 7.5 14 Noroeste 23 Noroeste 0 -- -- 77
2017-12-08 19:00:00 8 14 Noroeste 32 Noroeste 0 -- -- 76
2017-12-08 18:00:00 8.3 17 Noroeste 29 Norte 0 -- -- 75
2017-12-08 17:00:00 9.4 14 Noroeste 31 Noroeste 0 -- -- 74
2017-12-08 16:00:00 10.3 17 Noroeste 31 Noroeste 0 -- -- 72
2017-12-08 15:00:00 10.6 15 Noroeste 27 Noroeste 0 -- -- 74
2017-12-08 14:00:00 10.4 17 Noroeste 31 Noroeste 0 -- -- 75
2017-12-08 13:00:00 9 4 Nordeste 12 Este 0 -- -- 81
2017-12-08 12:00:00 7.1 4 Nordeste 7 Este 0 -- -- 84
2017-12-08 11:00:00 5.1 4 Nordeste 6 Nordeste 0 -- -- 91
2017-12-08 10:00:00 4.1 3 Nordeste 5 Sudeste 0 -- -- 93
2017-12-08 09:00:00 3.6 4 Este 8 Sudeste 0 -- -- 93
2017-12-08 08:00:00 3.2 3 Sur 7 Sudeste 0 -- -- 94
2017-12-08 07:00:00 3 3 Sudeste 4 Sur 0 -- -- 95
2017-12-08 06:00:00 2.9 2 Nordeste 6 Sur 0 -- -- 93
2017-12-08 05:00:00 3 5 Sudeste 6 Sur 0 -- -- 93
2017-12-08 04:00:00 2.3 0 Calma 8 Sur 0 -- -- 92
2017-12-08 03:00:00 2.1 6 Sudoeste 8 Sudoeste 0 -- -- 93
2017-12-08 02:00:00 1.7 3 Sudoeste 8 Noroeste 0 -- -- 91
2017-12-08 01:00:00 1.9 0 Calma 7 Sudeste 0 -- -- 90
2017-12-08 00:00:00 1.8 2 Sudeste 6 Sur 0 -- -- 90
2017-12-07 23:00:00 2 0 Calma 4 Sur 0 -- -- 87
2017-12-07 22:00:00 3 3 Sudeste 4 Sur 0 -- -- 85
2017-12-07 21:00:00 4.3 2 Sudoeste 9 Sudoeste 0 -- -- 81
2017-12-07 20:00:00 4.8 3 Sudoeste 5 Sudoeste 0 -- -- 79
2017-12-07 19:00:00 5.5 2 Oeste 5 Oeste 0 -- -- 78
2017-12-07 18:00:00 6 6 Sudoeste 12 Sur 0 -- -- 76
2017-12-07 17:00:00 6.4 7 Sur 9 Sur 0 -- -- 73
2017-12-07 16:00:00 6.3 2 Noroeste 5 Nordeste 0 -- -- 70
2017-12-07 15:00:00 5.9 2 Nordeste 5 Noroeste 0 -- -- 70
2017-12-07 14:00:00 4.3 3 Nordeste 7 Noroeste 0 -- -- 78
2017-12-07 13:00:00 2.6 2 Nordeste 5 Nordeste 0 -- -- 86
2017-12-07 12:00:00 0.5 2 Nordeste 5 Nordeste 0 -- -- 97
2017-12-07 11:00:00 -1.4 0 Calma 7 Noroeste 0 -- -- 97
2017-12-07 10:00:00 -2.1 2 Nordeste 6 Sudoeste 0 -- -- 97
2017-12-07 09:00:00 -2.9 2 Este 6 Norte 0 -- -- 97
2017-12-07 08:00:00 -3.5 0 Calma 6 Oeste 0 -- -- 97
2017-12-07 07:00:00 -3.6 0 Calma 4 Sur 0 -- -- 97
2017-12-07 06:00:00 -3.7 3 Este 4 Este 0 -- -- 95
2017-12-07 05:00:00 -3.2 0 Calma 4 Noroeste 0 -- -- 95
2017-12-07 04:00:00 -3.2 2 Oeste 4 Noroeste 0 -- -- 95
2017-12-07 03:00:00 -3.1 0 Calma 4 Sudoeste 0 -- -- 94
2017-12-07 02:00:00 -2.4 0 Calma 5 Este 0 -- -- 95
2017-12-07 01:00:00 -2 0 Calma 5 Sur 0 -- -- 95
2017-12-07 00:00:00 -1.9 2 Sudoeste 6 Oeste 0 -- -- 94
2017-12-06 23:00:00 -1.7 2 Nordeste 7 Sur 0 -- -- 93
2017-12-06 22:00:00 -0.2 0 Calma 6 Sur 0 -- -- 91
2017-12-06 21:00:00 0.1 0 Calma 5 Sudeste 0 -- -- 92
2017-12-06 20:00:00 0.8 3 Este 6 Sur 0 -- -- 89
2017-12-06 19:00:00 1.8 5 Sur 7 Sur 0 -- -- 86
2017-12-06 18:00:00 3.3 3 Oeste 5 Sudoeste 0 -- -- 81
2017-12-06 17:00:00 3.9 0 Calma 2 Este 0 -- -- 78
2017-12-06 16:00:00 3.9 0 Calma 4 Nordeste 0 -- -- 77
2017-12-06 15:00:00 3.4 0 Calma 5 Norte 0 -- -- 79
2017-12-06 14:00:00 1.3 3 Nordeste 5 Nordeste 0 -- -- 90
2017-12-06 13:00:00 -0.3 2 Norte 6 Noroeste 0 -- -- 97
2017-12-06 12:00:00 -2.1 3 Noroeste 7 Noroeste 0 -- -- 96
2017-12-06 11:00:00 -2.7 3 Noroeste 5 Norte 0 -- -- 96
2017-12-06 10:00:00 -3.2 2 Nordeste 4 Nordeste 0 -- -- 95
2017-12-06 09:00:00 -3.9 0 Calma 3 Nordeste 0 -- -- 95
2017-12-06 08:00:00 -4 0 Calma 2 Oeste 0 -- -- 94
2017-12-06 07:00:00 -3.4 0 Calma 3 Sudoeste 0 -- -- 94
2017-12-06 06:00:00 -3.6 2 Oeste 5 Sudeste 0 -- -- 94
2017-12-06 05:00:00 -3.3 4 Sudeste 6 Sudeste 0 -- -- 93
2017-12-06 04:00:00 -2.5 2 Noroeste 4 Sudoeste 0 -- -- 94
2017-12-06 03:00:00 -2.3 0 Calma 5 Sudeste 0 -- -- 94
2017-12-06 02:00:00 -2 5 Sudeste 7 Sudeste 0 -- -- 93
2017-12-06 01:00:00 -1.5 0 Calma 5 Sur 0 -- -- 92
2017-12-06 00:00:00 -0.9 5 Sur 9 Sur 0 -- -- 91
2017-12-05 23:00:00 -0.4 2 Oeste 6 Oeste 0 -- -- 91
2017-12-05 22:00:00 0.3 3 Oeste 5 Sudoeste 0 -- -- 89
2017-12-05 21:00:00 1.3 2 Sudoeste 5 Sudeste 0 -- -- 85
2017-12-05 20:00:00 2.3 0 Calma 4 Sudeste 0 -- -- 83
2017-12-05 19:00:00 3.2 4 Este 6 Sudeste 0 -- -- 79
2017-12-05 18:00:00 5 0 Calma 7 Sur 0 -- -- 72
2017-12-05 17:00:00 6.2 3 Sur 7 Sudoeste 0 -- -- 66
2017-12-05 16:00:00 7.4 3 Nordeste 5 Nordeste 0 -- -- 61
2017-12-05 15:00:00 7.5 2 Este 5 Este 0 -- -- 61
2017-12-05 14:00:00 6.5 2 Nordeste 5 Nordeste 0 -- -- 65
2017-12-05 13:00:00 4.2 3 Noroeste 6 Noroeste 0 -- -- 75
2017-12-05 12:00:00 2.3 2 Norte 5 Nordeste 0 -- -- 79
2017-12-05 11:00:00 0.4 3 Norte 5 Norte 0 -- -- 82
2017-12-05 10:00:00 -1.5 0 Calma 4 Sudeste 0 -- -- 90
2017-12-05 09:00:00 -3.2 3 Sudeste 8 Sur 0 -- -- 93
2017-12-05 08:00:00 -2.9 5 Sudeste 6 Sudeste 0 -- -- 92
2017-12-05 07:00:00 -2.5 0 Calma 6 Este 0 -- -- 92
2017-12-05 06:00:00 -2.1 5 Este 9 Sudeste 0 -- -- 92
2017-12-05 05:00:00 -2.2 3 Sur 6 Sudeste 0 -- -- 91
2017-12-05 04:00:00 -1.1 2 Sudeste 5 Sur 0 -- -- 92
2017-12-05 03:00:00 -1 2 Sudeste 6 Noroeste 0 -- -- 91
2017-12-05 02:00:00 -1 4 Oeste 7 Noroeste 0 -- -- 90
2017-12-05 01:00:00 0.4 5 Noroeste 9 Sudeste 0 -- -- 83
2017-12-05 00:00:00 2.3 5 Sudeste 11 Sudeste 0 -- -- 82
2017-12-04 23:00:00 3.6 4 Sudeste 9 Sudeste 0 -- -- 78
2017-12-04 22:00:00 4.4 2 Este 12 Noroeste 0 -- -- 75
2017-12-04 21:00:00 5 2 Norte 17 Norte 0 -- -- 73
2017-12-04 20:00:00 5.5 2 Oeste 12 Oeste 0 -- -- 71
2017-12-04 19:00:00 5.5 4 Oeste 13 Oeste 0 -- -- 72
2017-12-04 18:00:00 6.7 8 Oeste 21 Noroeste 0 -- -- 67
2017-12-04 17:00:00 8.3 12 Norte 28 Norte 0 -- -- 62
2017-12-04 16:00:00 9.5 13 Noroeste 24 Noroeste 0 -- -- 57
2017-12-04 15:00:00 10.4 10 Norte 31 Noroeste 0 -- -- 54
2017-12-04 14:00:00 10.4 14 Norte 29 Noroeste 0 -- -- 54
2017-12-04 13:00:00 9.8 13 Norte 26 Noroeste 0 -- -- 57
2017-12-04 12:00:00 8.5 3 Noroeste 6 Noroeste 0 -- -- 64
2017-12-04 11:00:00 5.3 2 Sudoeste 6 Norte 0 -- -- 74
2017-12-04 10:00:00 2.6 3 Oeste 10 Norte 0 -- -- 82
2017-12-04 09:00:00 2.6 2 Sudeste 9 Sudeste 0 -- -- 83
2017-12-04 08:00:00 3.3 6 Sudeste 12 Oeste 0 -- -- 79
2017-12-04 07:00:00 4.6 9 Oeste 15 Oeste 0 -- -- 76
2017-12-04 06:00:00 4.6 4 Sudeste 13 Noroeste 0 -- -- 75
2017-12-04 05:00:00 5.5 5 Norte 26 Norte 0 -- -- 74
2017-12-04 04:00:00 6 13 Noroeste 30 Noroeste 0 -- -- 72
2017-12-04 03:00:00 5.9 19 Noroeste 38 Noroeste 0 -- -- 73
2017-12-04 02:00:00 3.8 14 Noroeste 27 Oeste 0 -- -- 86
2017-12-04 01:00:00 4.4 13 Oeste 25 Oeste 0 -- -- 82
2017-12-04 00:00:00 4 5 Oeste 19 Oeste 0 -- -- 81
2017-12-03 23:00:00 4.4 9 Noroeste 30 Noroeste 0 -- -- 77
2017-12-03 22:00:00 3.8 16 Noroeste 27 Noroeste 0 -- -- 76
2017-12-03 21:00:00 3.3 9 Noroeste 19 Oeste 0 -- -- 71
2017-12-03 20:00:00 3.8 12 Noroeste 23 Noroeste 0 -- -- 68
2017-12-03 19:00:00 3.1 8 Noroeste 17 Norte 0 -- -- 67
2017-12-03 18:00:00 3.2 9 Norte 20 Noroeste 0 -- -- 61
2017-12-03 17:00:00 3.5 8 Norte 20 Noroeste 0 -- -- 52
2017-12-03 16:00:00 4.2 7 Norte 24 Norte 0 -- -- 45
2017-12-03 15:00:00 4.1 12 Norte 27 Nordeste 0 -- -- 40
2017-12-03 14:00:00 4.3 9 Norte 33 Norte 0 -- -- 41
2017-12-03 13:00:00 5.1 17 Norte 34 Norte 0 -- -- 41
2017-12-03 12:00:00 4.8 14 Noroeste 27 Noroeste 0 -- -- 40
2017-12-03 11:00:00 3.9 15 Norte 29 Norte 0 -- -- 40
2017-12-03 10:00:00 2.9 14 Norte 34 Norte 0 -- -- 43
2017-12-03 09:00:00 1.3 5 Norte 42 Noroeste 0 -- -- 47
2017-12-03 08:00:00 1.4 26 Norte 45 Norte 0 -- -- 44
2017-12-03 07:00:00 1.3 22 Norte 46 Noroeste 0 -- -- 46
2017-12-03 06:00:00 1 18 Norte 37 Norte 0 -- -- 47
2017-12-03 05:00:00 -0.3 12 Este 18 Este 0 -- -- 57
2017-12-03 04:00:00 0.7 11 Norte 24 Norte 0 -- -- 53
2017-12-03 03:00:00 0.4 15 Noroeste 33 Norte 0 -- -- 56
2017-12-03 02:00:00 0.5 18 Norte 31 Norte 0 -- -- 56
2017-12-03 01:00:00 0.1 10 Nordeste 32 Nordeste 0 -- -- 61
2017-12-03 00:00:00 0.4 8 Norte 34 Norte 0 -- -- 60
2017-12-02 23:00:00 0.6 19 Nordeste 42 Norte 0 -- -- 59
2017-12-02 22:00:00 0.9 19 Norte 37 Norte 0 -- -- 59
2017-12-02 21:00:00 0.8 18 Norte 34 Norte 0 -- -- 65
2017-12-02 20:00:00 1.2 19 Norte 39 Nordeste 0 -- -- 64
2017-12-02 19:00:00 1.3 19 Norte 40 Nordeste 0 -- -- 66
2017-12-02 18:00:00 1.6 27 Norte 63 Norte 0 -- -- 65
2017-12-02 17:00:00 2.3 23 Norte 52 Noroeste 0 -- -- 66
2017-12-02 16:00:00 3 28 Norte 49 Norte 0 -- -- 62
2017-12-02 15:00:00 3.5 30 Norte 57 Norte 0 -- -- 60
2017-12-02 14:00:00 3.5 23 Norte 52 Norte 0 -- -- 64
2017-12-02 13:00:00 2.9 23 Norte 52 Noroeste 0 -- -- 68
2017-12-02 12:00:00 3 18 Norte 44 Noroeste 0 -- -- 63
2017-12-02 11:00:00 2.1 15 Norte 41 Norte 0 -- -- 64
2017-12-02 10:00:00 0.8 18 Norte 31 Noroeste 0 -- -- 66
2017-12-02 09:00:00 -0.3 14 Norte 30 Norte 0 -- -- 70
2017-12-02 08:00:00 -0.6 16 Norte 30 Norte 0 -- -- 71
2017-12-02 07:00:00 -0.4 12 Norte 28 Norte 0 -- -- 73
2017-12-02 06:00:00 0.4 15 Norte 34 Norte 0 -- -- 72
2017-12-02 05:00:00 0.9 14 Norte 36 Norte 0 -- -- 75
2017-12-02 04:00:00 1.2 14 Norte 30 Norte 0 -- -- 82
2017-12-02 03:00:00 1.1 14 Noroeste 29 Noroeste 0 -- -- 83
2017-12-02 02:00:00 0.6 12 Noroeste 22 Noroeste 0 -- -- 89
2017-12-02 01:00:00 0.5 9 Noroeste 19 Oeste 0 -- -- 91
2017-12-02 00:00:00 0.6 10 Oeste 23 Noroeste 0.2 -- -- 93
2017-12-01 23:00:00 0.1 6 Oeste 18 Oeste 1 -- -- 88
2017-12-01 22:00:00 0.4 4 Oeste 10 Noroeste 1.2 -- -- 91
2017-12-01 21:00:00 0.8 6 Este 13 Nordeste 0 -- -- 82
2017-12-01 20:00:00 1 9 Noroeste 27 Norte 0 -- -- 76
2017-12-01 19:00:00 1.4 16 Noroeste 28 Noroeste 0 -- -- 71
2017-12-01 18:00:00 1 11 Noroeste 26 Noroeste 0 -- -- 73
2017-12-01 17:00:00 1.6 12 Noroeste 34 Noroeste 0 -- -- 68
2017-12-01 16:00:00 2.4 17 Noroeste 30 Norte 0 -- -- 68
2017-12-01 15:00:00 3.5 15 Norte 41 Norte 0.2 -- -- 62
2017-12-01 14:00:00 4 19 Norte 38 Norte 0 -- -- 56
2017-12-01 13:00:00 3.7 14 Norte 42 Nordeste 0 -- -- 63
2017-12-01 12:00:00 2.9 14 Norte 31 Noroeste 0 -- -- 65
2017-12-01 11:00:00 1.6 12 Norte 28 Norte 0 -- -- 77
2017-12-01 10:00:00 1 13 Nordeste 30 Norte 0.4 -- -- 88
2017-12-01 09:00:00 1.7 18 Norte 37 Norte 0.6 -- -- 89
2017-12-01 08:00:00 3 4 Noroeste 31 Oeste 0.6 -- -- 91
2017-12-01 07:00:00 3.1 13 Oeste 28 Oeste 0.8 -- -- 91
2017-12-01 06:00:00 3.3 9 Oeste 26 Oeste 0.2 -- -- 88
2017-12-01 05:00:00 3.7 11 Oeste 23 Noroeste 0 -- -- 87
2017-12-01 04:00:00 3.7 9 Oeste 25 Oeste 0 -- -- 88
2017-12-01 03:00:00 3.9 15 Oeste 27 Oeste 0.4 -- -- 87
2017-12-01 02:00:00 4.2 17 Oeste 27 Oeste 0 -- -- 84
2017-12-01 01:00:00 3.6 8 Noroeste 17 Oeste 0 -- -- 87
2017-12-01 00:00:00 3.3 4 Oeste 8 Oeste 0 -- -- 85
2017-11-30 23:00:00 3.8 2 Oeste 8 Oeste 0 -- -- 83
2017-11-30 22:00:00 3.8 5 Oeste 13 Oeste 0 -- -- 82
2017-11-30 21:00:00 3.8 4 Oeste 15 Oeste 0 -- -- 80
2017-11-30 20:00:00 3.3 7 Oeste 14 Oeste 0 -- -- 83
2017-11-30 19:00:00 4.1 5 Sudoeste 14 Noroeste 0 -- -- 78
2017-11-30 18:00:00 4.9 9 Oeste 23 Noroeste 0 -- -- 74
2017-11-30 17:00:00 5.5 11 Noroeste 28 Noroeste 0 -- -- 71
2017-11-30 16:00:00 6.1 17 Noroeste 27 Noroeste 0 -- -- 65
2017-11-30 15:00:00 6.8 16 Norte 31 Noroeste 0 -- -- 63
2017-11-30 14:00:00 7.3 12 Noroeste 24 Noroeste 0 -- -- 61
2017-11-30 13:00:00 6.6 14 Noroeste 27 Noroeste 0 -- -- 64
2017-11-30 12:00:00 6.6 15 Noroeste 27 Norte 0 -- -- 63
2017-11-30 11:00:00 5.4 14 Noroeste 28 Noroeste 0 -- -- 69
2017-11-30 10:00:00 3.9 8 Noroeste 15 Noroeste 0 -- -- 73
2017-11-30 09:00:00 1.3 10 Oeste 18 Oeste 0 -- -- 79
2017-11-30 08:00:00 0.6 8 Noroeste 11 Noroeste 0 -- -- 77
2017-11-30 07:00:00 0.8 4 Oeste 9 Oeste 0 -- -- 75
2017-11-30 06:00:00 0.7 3 Oeste 10 Sudoeste 0 -- -- 77
2017-11-30 05:00:00 0.9 4 Oeste 9 Oeste 0 -- -- 78
2017-11-30 04:00:00 1.2 4 Oeste 8 Oeste 0 -- -- 75
2017-11-30 03:00:00 1.9 3 Norte 18 Noroeste 0 -- -- 74
2017-11-30 02:00:00 2.5 10 Norte 19 Noroeste 0 -- -- 74
2017-11-30 01:00:00 2.7 11 Noroeste 22 Norte 0 -- -- 75
2017-11-30 00:00:00 3 10 Noroeste 20 Noroeste 0 -- -- 73
2017-11-29 23:00:00 3 14 Noroeste 27 Norte 0 -- -- 76
2017-11-29 22:00:00 3.6 12 Norte 26 Norte 0 -- -- 77
2017-11-29 21:00:00 3 12 Noroeste 21 Noroeste 0 -- -- 80
2017-11-29 20:00:00 3.7 15 Noroeste 23 Noroeste 0 -- -- 78
2017-11-29 19:00:00 4.5 9 Noroeste 19 Noroeste 0 -- -- 72
2017-11-29 18:00:00 5.1 6 Noroeste 31 Noroeste 0 -- -- 72
2017-11-29 17:00:00 6.4 16 Noroeste 35 Noroeste 0 -- -- 70
2017-11-29 16:00:00 7.7 14 Noroeste 30 Noroeste 0 -- -- 67
2017-11-29 15:00:00 8.6 13 Norte 31 Noroeste 0 -- -- 62
2017-11-29 14:00:00 9.5 11 Norte 29 Noroeste 0 -- -- 62
2017-11-29 13:00:00 8.2 16 Noroeste 31 Noroeste 0 -- -- 67
2017-11-29 12:00:00 8 14 Noroeste 26 Noroeste 0 -- -- 69
2017-11-29 11:00:00 6.6 10 Noroeste 19 Norte 0 -- -- 76
2017-11-29 10:00:00 5.8 8 Noroeste 15 Norte 0 -- -- 81
2017-11-29 09:00:00 3.5 8 Noroeste 15 Noroeste 0 -- -- 88
2017-11-29 08:00:00 2.8 6 Noroeste 10 Noroeste 0 -- -- 87
2017-11-29 07:00:00 3.3 3 Sudoeste 8 Oeste 0 -- -- 87
2017-11-29 06:00:00 4 4 Noroeste 8 Oeste 0 -- -- 87
2017-11-29 05:00:00 4.2 5 Oeste 8 Noroeste 0 -- -- 89
2017-11-29 04:00:00 4 6 Noroeste 9 Noroeste 0 -- -- 90
2017-11-29 03:00:00 2.3 4 Sudoeste 9 Sudoeste 0 -- -- 94
2017-11-29 02:00:00 2 5 Sur 8 Sur 0 -- -- 91
2017-11-29 01:00:00 2 4 Sudoeste 12 Sur 0 -- -- 91
2017-11-29 00:00:00 2.4 4 Oeste 10 Sur 0 -- -- 90
2017-11-28 23:00:00 1.8 2 Norte 8 Sur 0 -- -- 90
2017-11-28 22:00:00 2.3 8 Sudoeste 11 Sudoeste 0 -- -- 89
2017-11-28 21:00:00 2.7 4 Sur 6 Sudeste 0 -- -- 85
2017-11-28 20:00:00 3.7 3 Este 13 Sudoeste 0 -- -- 81
2017-11-28 19:00:00 4.2 4 Sudoeste 12 Sudoeste 0 -- -- 79
2017-11-28 18:00:00 5.5 3 Nordeste 12 Sur 0 -- -- 75
2017-11-28 17:00:00 7.3 8 Sur 10 Sur 0 -- -- 70
2017-11-28 16:00:00 8.8 0 Calma 8 Nordeste 0 -- -- 61
2017-11-28 15:00:00 8.7 3 Este 7 Nordeste 0 -- -- 62
2017-11-28 14:00:00 7 3 Nordeste 6 Norte 0 -- -- 68
2017-11-28 13:00:00 4.6 3 Nordeste 5 Nordeste 0 -- -- 76
2017-11-28 12:00:00 2.1 2 Nordeste 6 Nordeste 0 -- -- 86
2017-11-28 11:00:00 0.9 3 Nordeste 5 Nordeste 0 -- -- 89
2017-11-28 10:00:00 -1.2 2 Nordeste 4 Nordeste 0 -- -- 95
2017-11-28 09:00:00 -3.3 0 Calma 4 Sudeste 0 -- -- 95
2017-11-28 08:00:00 -3.3 0 Calma 7 Sudeste 0 -- -- 93
2017-11-28 07:00:00 -2.8 2 Nordeste 4 Nordeste 0 -- -- 93
2017-11-28 06:00:00 -2.1 3 Este 5 Sudeste 0 -- -- 94
2017-11-28 05:00:00 -1.6 0 Calma 10 Sur 0 -- -- 94
2017-11-28 04:00:00 -1.3 3 Oeste 6 Sur 0 -- -- 93
2017-11-28 03:00:00 -1.2 4 Oeste 8 Sur 0 -- -- 92
2017-11-28 02:00:00 -0.3 0 Calma 4 Nordeste 0 -- -- 91
2017-11-28 01:00:00 0.4 0 Calma 6 Sudoeste 0 -- -- 88
2017-11-28 00:00:00 0.5 4 Sudoeste 6 Sur 0 -- -- 89
2017-11-27 23:00:00 1.2 4 Sur 7 Sur 0 -- -- 86
2017-11-27 22:00:00 1.8 2 Este 5 Sudeste 0 -- -- 85
2017-11-27 21:00:00 2.7 3 Sudeste 5 Sur 0 -- -- 81
2017-11-27 20:00:00 3.4 0 Calma 6 Sur 0 -- -- 78
2017-11-27 19:00:00 4.4 2 Sur 11 Sur 0 -- -- 73
2017-11-27 18:00:00 5.4 9 Sur 13 Sudoeste 0 -- -- 73
2017-11-27 17:00:00 7 5 Sudoeste 12 Sur 0 -- -- 69
2017-11-27 16:00:00 8.8 0 Calma 5 Este 0 -- -- 56
2017-11-27 15:00:00 9 2 Este 10 Nordeste 0 -- -- 55
2017-11-27 14:00:00 8.1 3 Nordeste 6 Nordeste 0 -- -- 57
2017-11-27 13:00:00 6.6 2 Este 6 Este 0 -- -- 63
2017-11-27 12:00:00 4.8 3 Norte 8 Noroeste 0 -- -- 67
2017-11-27 11:00:00 3.1 3 Noroeste 5 Noroeste 0 -- -- 76
2017-11-27 10:00:00 0.5 0 Calma 6 Sudoeste 0 -- -- 90
2017-11-27 09:00:00 -0.7 0 Calma 6 Sur 0 -- -- 88
2017-11-27 08:00:00 -0.5 4 Sudeste 7 Este 0 -- -- 88
2017-11-27 07:00:00 -0.2 3 Este 6 Sudeste 0 -- -- 87
2017-11-27 06:00:00 0.1 2 Norte 6 Oeste 0 -- -- 86
2017-11-27 05:00:00 0.6 3 Oeste 7 Nordeste 0 -- -- 84
2017-11-27 04:00:00 1.7 5 Nordeste 10 Este 0 -- -- 81
2017-11-27 03:00:00 1.7 4 Este 10 Este 0 -- -- 81
2017-11-27 02:00:00 3.7 5 Nordeste 14 Este 0 -- -- 74
2017-11-27 01:00:00 4.1 3 Este 17 Noroeste 0 -- -- 71
2017-11-27 00:00:00 4.7 9 Noroeste 16 Noroeste 0 -- -- 69
2017-11-26 23:00:00 5 5 Oeste 23 Noroeste 0 -- -- 68
2017-11-26 22:00:00 5.8 12 Noroeste 26 Noroeste 0 -- -- 66
2017-11-26 21:00:00 5.5 13 Noroeste 26 Noroeste 0 -- -- 69
2017-11-26 20:00:00 6.3 12 Noroeste 25 Norte 0 -- -- 65
2017-11-26 19:00:00 6.6 13 Norte 26 Norte 0 -- -- 64
2017-11-26 18:00:00 6.9 10 Norte 25 Nordeste 0 -- -- 64
2017-11-26 17:00:00 7.9 16 Nordeste 30 Norte 0 -- -- 59
2017-11-26 16:00:00 8.4 12 Norte 28 Nordeste 0 -- -- 57
2017-11-26 15:00:00 8.9 16 Norte 37 Nordeste 0 -- -- 59
2017-11-26 14:00:00 9.8 17 Norte 35 Noroeste 0 -- -- 60
2017-11-26 13:00:00 10.3 15 Noroeste 30 Noroeste 0 -- -- 56
2017-11-26 12:00:00 8.6 14 Noroeste 28 Norte 0 -- -- 63
2017-11-26 11:00:00 8.3 13 Noroeste 28 Noroeste 0 -- -- 64
2017-11-26 10:00:00 6.8 13 Noroeste 21 Noroeste 0 -- -- 71
2017-11-26 09:00:00 5 10 Noroeste 23 Noroeste 0 -- -- 79
2017-11-26 08:00:00 5.1 11 Noroeste 28 Noroeste 0 -- -- 78
2017-11-26 07:00:00 5.2 17 Noroeste 32 Noroeste 0 -- -- 78
2017-11-26 06:00:00 4.7 14 Noroeste 27 Noroeste 0 -- -- 78
2017-11-26 05:00:00 4.9 12 Noroeste 27 Noroeste 0 -- -- 77
2017-11-26 04:00:00 4.4 10 Noroeste 18 Noroeste 0 -- -- 79
2017-11-26 03:00:00 4.8 13 Noroeste 22 Norte 0 -- -- 77
2017-11-26 02:00:00 4.9 13 Noroeste 25 Noroeste 0 -- -- 77
2017-11-26 01:00:00 5 15 Noroeste 25 Noroeste 0 -- -- 76
2017-11-26 00:00:00 4.9 11 Noroeste 23 Noroeste 0 -- -- 76
2017-11-25 23:00:00 5.1 11 Noroeste 20 Noroeste 0 -- -- 73
2017-11-25 22:00:00 5.4 11 Noroeste 21 Noroeste 0 -- -- 70
2017-11-25 21:00:00 6 14 Noroeste 22 Noroeste 0 -- -- 68
2017-11-25 20:00:00 6.5 11 Norte 26 Norte 0 -- -- 67
2017-11-25 19:00:00 7.2 11 Noroeste 27 Norte 0 -- -- 68
2017-11-25 18:00:00 7.6 11 Norte 35 Norte 0 -- -- 68
2017-11-25 17:00:00 8.6 11 Norte 38 Nordeste 0 -- -- 66
2017-11-25 16:00:00 9.6 21 Norte 40 Norte 0 -- -- 64
2017-11-25 15:00:00 10.4 22 Norte 42 Nordeste 0 -- -- 61
2017-11-25 14:00:00 10.6 20 Norte 41 Norte 0 -- -- 62
2017-11-25 13:00:00 11.3 17 Norte 42 Norte 0.2 -- -- 64
2017-11-25 12:00:00 11.4 16 Norte 29 Noroeste 0 -- -- 74
2017-11-25 11:00:00 10.7 17 Noroeste 26 Noroeste 0 -- -- 80
2017-11-25 10:00:00 10.5 5 Norte 15 Norte 0 -- -- 78
2017-11-25 09:00:00 9.9 6 Este 27 Noroeste 0 -- -- 80
2017-11-25 08:00:00 10.4 9 Noroeste 17 Noroeste 0 -- -- 87
2017-11-25 07:00:00 10.3 10 Oeste 17 Oeste 0 -- -- 87
2017-11-25 06:00:00 10.6 5 Norte 14 Noroeste 0 -- -- 84
2017-11-25 05:00:00 10.6 8 Oeste 19 Oeste 1.4 -- -- 86
2017-11-25 04:00:00 9.1 12 Oeste 20 Noroeste 0.6 -- -- 96
2017-11-25 03:00:00 8.6 2 Noroeste 9 Sur 0 -- -- 95
2017-11-25 02:00:00 8.6 4 Oeste 6 Oeste 0 -- -- 95
2017-11-25 01:00:00 9 2 Norte 9 Sur 0 -- -- 92
2017-11-25 00:00:00 9.1 2 Sudoeste 8 Oeste 0.2 -- -- 93
2017-11-24 23:00:00 9.6 4 Sur 10 Sudoeste 0 -- -- 91
2017-11-24 22:00:00 9 2 Nordeste 7 Noroeste 0 -- -- 89
2017-11-24 21:00:00 9.3 4 Sur 10 Sur 0 -- -- 87
2017-11-24 20:00:00 9.9 3 Oeste 8 Oeste 0 -- -- 87
2017-11-24 19:00:00 10.5 6 Sur 10 Sur 0 -- -- 86
2017-11-24 18:00:00 11.1 2 Oeste 6 Oeste 0 -- -- 86
2017-11-24 17:00:00 11.6 0 Calma 9 Sudoeste 0.2 -- -- 83
2017-11-24 16:00:00 11.8 8 Norte 22 Sudeste 0.2 -- -- 78
2017-11-24 15:00:00 12.4 2 Oeste 13 Noroeste 0 -- -- 75
2017-11-24 14:00:00 12.8 2 Sur 4 Oeste 0 -- -- 69
2017-11-24 13:00:00 12.2 2 Sudoeste 8 Sudoeste 0 -- -- 74
2017-11-24 12:00:00 11.2 2 Norte 9 Noroeste 0 -- -- 81
2017-11-24 11:00:00 9.6 3 Nordeste 5 Este 0 -- -- 81
2017-11-24 10:00:00 9.2 3 Sur 5 Sudeste 0 -- -- 87
2017-11-24 09:00:00 8.4 3 Oeste 8 Sur 0 -- -- 85
2017-11-24 08:00:00 7.3 2 Nordeste 7 Sudoeste 0 -- -- 87
2017-11-24 07:00:00 7.6 2 Sudeste 13 Sur 0 -- -- 87
2017-11-24 06:00:00 6.9 0 Calma 7 Sudeste 0 -- -- 86
2017-11-24 05:00:00 7.1 2 Sudoeste 7 Sudeste 0.2 -- -- 82
2017-11-24 04:00:00 7.5 6 Sudoeste 12 Sur 0 -- -- 76
2017-11-24 03:00:00 6.3 0 Calma 5 Oeste 0 -- -- 80
2017-11-24 02:00:00 7 0 Calma 4 Sur 0 -- -- 75
2017-11-24 01:00:00 7.1 3 Nordeste 8 Sur 0 -- -- 74
2017-11-24 00:00:00 7.4 2 Este 9 Sudoeste 0 -- -- 72
2017-11-23 23:00:00 8.8 2 Sur 4 Sur 0 -- -- 67
2017-11-23 22:00:00 9.3 2 Este 6 Sudeste 0 -- -- 65
2017-11-23 21:00:00 10.1 3 Oeste 12 Sur 0 -- -- 62
2017-11-23 20:00:00 10.4 3 Sur 9 Sudeste 0 -- -- 62
2017-11-23 19:00:00 12.1 3 Sudeste 8 Sudeste 0 -- -- 56
2017-11-23 18:00:00 14.6 4 Oeste 15 Sur 0 -- -- 48
2017-11-23 17:00:00 16.1 11 Sur 19 Sur 0 -- -- 45
2017-11-23 16:00:00 17 14 Sur 22 Sur 0 -- -- 43
2017-11-23 15:00:00 18 17 Sur 24 Sur 0 -- -- 39
2017-11-23 14:00:00 16.6 3 Nordeste 8 Nordeste 0 -- -- 45
2017-11-23 13:00:00 14.8 3 Norte 7 Este 0 -- -- 48
2017-11-23 12:00:00 11.3 3 Nordeste 10 Nordeste 0 -- -- 64
2017-11-23 11:00:00 8.3 3 Noroeste 7 Sur 0 -- -- 73
2017-11-23 10:00:00 5.8 5 Noroeste 9 Noroeste 0 -- -- 77
2017-11-23 09:00:00 4.6 6 Sudoeste 10 Sudoeste 0 -- -- 77
2017-11-23 08:00:00 4.2 3 Sudeste 13 Sur 0 -- -- 76
2017-11-23 07:00:00 5.5 2 Este 14 Sudoeste 0 -- -- 71
2017-11-23 06:00:00 4.5 4 Sudoeste 10 Sudoeste 0 -- -- 79
2017-11-23 05:00:00 4.4 5 Oeste 13 Sur 0 -- -- 77
2017-11-23 04:00:00 5.3 5 Nordeste 10 Sudoeste 0 -- -- 76
2017-11-23 03:00:00 5.7 5 Este 11 Sur 0 -- -- 72
2017-11-23 02:00:00 4.9 5 Este 22 Sur 0 -- -- 76
2017-11-23 01:00:00 5.2 0 Calma 9 Sudoeste 0 -- -- 74
2017-11-23 00:00:00 5.3 2 Nordeste 8 Sudeste 0 -- -- 72
2017-11-22 23:00:00 6.1 6 Sur 14 Sur 0 -- -- 70
2017-11-22 22:00:00 5.1 3 Sur 11 Sur 0 -- -- 74
2017-11-22 21:00:00 6.5 8 Sudoeste 10 Sudoeste 0 -- -- 67
2017-11-22 20:00:00 7.7 2 Nordeste 9 Sudeste 0 -- -- 66
2017-11-22 19:00:00 10.2 2 Oeste 9 Sur 0 -- -- 62
2017-11-22 18:00:00 10.6 3 Sudoeste 12 Sur 0 -- -- 56
2017-11-22 17:00:00 12.5 5 Sur 8 Sur 0 -- -- 56
2017-11-22 16:00:00 14 4 Este 8 Este 0 -- -- 52
2017-11-22 15:00:00 13.7 2 Este 5 Este 0 -- -- 52
2017-11-22 14:00:00 11.5 3 Este 6 Nordeste 0 -- -- 57
2017-11-22 13:00:00 9.3 2 Nordeste 5 Norte 0 -- -- 64
2017-11-22 12:00:00 6.4 3 Norte 4 Noroeste 0 -- -- 73
2017-11-22 11:00:00 3.4 2 Nordeste 4 Este 0 -- -- 84
2017-11-22 10:00:00 0.9 2 Sudeste 4 Oeste 0 -- -- 92
2017-11-22 09:00:00 -1.3 2 Norte 4 Sudeste 0 -- -- 95
2017-11-22 08:00:00 -1.6 3 Sudeste 4 Este 0 -- -- 95
2017-11-22 07:00:00 -1.4 4 Noroeste 6 Noroeste 0 -- -- 93
2017-11-22 06:00:00 -1 2 Este 5 Este 0 -- -- 93
2017-11-22 05:00:00 0.7 0 Calma 6 Sudoeste 0 -- -- 90
2017-11-22 04:00:00 -0.3 2 Sudoeste 6 Noroeste 0 -- -- 93
2017-11-22 03:00:00 0.9 2 Sudeste 6 Este 0 -- -- 89
2017-11-22 02:00:00 1.5 0 Calma 6 Sudoeste 0 -- -- 89
2017-11-22 01:00:00 2.7 0 Calma 6 Sudeste 0 -- -- 86
2017-11-22 00:00:00 3.1 2 Sudeste 4 Este 0 -- -- 85
2017-11-21 23:00:00 4 0 Calma 8 Sur 0 -- -- 83
2017-11-21 22:00:00 4.8 0 Calma 6 Oeste 0 -- -- 81
2017-11-21 21:00:00 5.5 4 Sudoeste 6 Sudoeste 0 -- -- 77
2017-11-21 20:00:00 6.4 4 Este 7 Sudeste 0 -- -- 76
2017-11-21 19:00:00 7.5 5 Sudeste 8 Sur 0 -- -- 70
2017-11-21 18:00:00 9.7 4 Sudoeste 8 Sudoeste 0 -- -- 63
2017-11-21 17:00:00 11.5 4 Sudoeste 6 Sudoeste 0 -- -- 61
2017-11-21 16:00:00 13 2 Norte 4 Nordeste 0 -- -- 54
2017-11-21 15:00:00 13 3 Nordeste 5 Nordeste 0 -- -- 54
2017-11-21 14:00:00 11.5 3 Nordeste 4 Nordeste 0 -- -- 55
2017-11-21 13:00:00 9 3 Noroeste 6 Norte 0 -- -- 65
2017-11-21 12:00:00 6.7 3 Noroeste 5 Norte 0 -- -- 72
2017-11-21 11:00:00 4.3 3 Norte 4 Norte 0 -- -- 80
2017-11-21 10:00:00 1.7 2 Nordeste 4 Noroeste 0 -- -- 88
2017-11-21 09:00:00 -0.7 0 Calma 5 Sudeste 0 -- -- 93
2017-11-21 08:00:00 -0.6 3 Este 8 Sudeste 0 -- -- 92
2017-11-21 07:00:00 -0.4 3 Sur 4 Sur 0 -- -- 93
2017-11-21 06:00:00 0.2 2 Sur 5 Sudeste 0 -- -- 92
2017-11-21 05:00:00 0.4 0 Calma 6 Sudeste 0 -- -- 92
2017-11-21 04:00:00 1.3 3 Sudeste 8 Este 0 -- -- 88
2017-11-21 03:00:00 1.9 0 Calma 5 Sur 0 -- -- 89
2017-11-21 02:00:00 2.1 2 Este 3 Sur 0 -- -- 89
2017-11-21 01:00:00 2.5 0 Calma 5 Este 0 -- -- 88
2017-11-21 00:00:00 3.3 2 Este 6 Sudoeste 0 -- -- 86
2017-11-20 23:00:00 4.4 0 Calma 7 Sudoeste 0 -- -- 80
2017-11-20 22:00:00 5 3 Oeste 6 Oeste 0 -- -- 80
2017-11-20 21:00:00 6.3 3 Oeste 7 Sur 0 -- -- 75
2017-11-20 20:00:00 7.3 3 Sudeste 6 Este 0 -- -- 71
2017-11-20 19:00:00 8.9 2 Sudeste 9 Sudoeste 0 -- -- 64
2017-11-20 18:00:00 10 7 Sudoeste 9 Sudoeste 0 -- -- 62
2017-11-20 17:00:00 12.8 0 Calma 3 Sur 0 -- -- 52
2017-11-20 16:00:00 13.3 0 Calma 3 Norte 0 -- -- 47
2017-11-20 15:00:00 13.3 2 Nordeste 5 Nordeste 0 -- -- 46
2017-11-20 14:00:00 11.5 3 Nordeste 6 Noroeste 0 -- -- 47
2017-11-20 13:00:00 9.3 4 Noroeste 7 Norte 0 -- -- 59
2017-11-20 12:00:00 6.7 4 Nordeste 7 Nordeste 0 -- -- 65
2017-11-20 11:00:00 4.4 0 Calma 4 Nordeste 0 -- -- 74
2017-11-20 10:00:00 2.5 0 Calma 7 Sudeste 0 -- -- 78
2017-11-20 09:00:00 0.6 6 Sudeste 8 Este 0 -- -- 89
2017-11-20 08:00:00 -0.4 0 Calma 5 Sur 0 -- -- 86
2017-11-20 07:00:00 0.2 0 Calma 8 Este 0 -- -- 87
2017-11-20 06:00:00 0.2 6 Este 8 Sudeste 0 -- -- 88
2017-11-20 05:00:00 0.3 0 Calma 5 Sudeste 0 -- -- 87
2017-11-20 04:00:00 1.4 4 Sudeste 8 Sudeste 0 -- -- 83
2017-11-20 03:00:00 1.4 0 Calma 4 Nordeste 0 -- -- 83
2017-11-20 02:00:00 2.2 2 Este 5 Este 0 -- -- 78
2017-11-20 01:00:00 2.4 0 Calma 5 Oeste 0 -- -- 79
2017-11-20 00:00:00 3.8 0 Calma 6 Sudoeste 0 -- -- 73
2017-11-19 23:00:00 4.7 3 Nordeste 8 Este 0 -- -- 69
2017-11-19 22:00:00 6.7 5 Este 13 Este 0 -- -- 60
2017-11-19 21:00:00 8 8 Este 13 Este 0 -- -- 54
2017-11-19 20:00:00 8 8 Sudeste 10 Sur 0 -- -- 56
2017-11-19 19:00:00 9.1 5 Este 8 Este 0 -- -- 56
2017-11-19 18:00:00 10.1 5 Sur 9 Sur 0 -- -- 52
2017-11-19 17:00:00 12.1 4 Sur 6 Sur 0 -- -- 47
2017-11-19 16:00:00 13.3 0 Calma 5 Nordeste 0 -- -- 54
2017-11-19 15:00:00 12.8 2 Nordeste 5 Norte 0 -- -- 54
2017-11-19 14:00:00 11.2 3 Nordeste 6 Nordeste 0 -- -- 58
2017-11-19 13:00:00 8.9 2 Este 8 Nordeste 0 -- -- 66
2017-11-19 12:00:00 6.4 3 Nordeste 6 Nordeste 0 -- -- 76
2017-11-19 11:00:00 4.3 4 Nordeste 8 Este 0 -- -- 82
2017-11-19 10:00:00 1.9 0 Calma 5 Este 0 -- -- 91
2017-11-19 09:00:00 0.4 3 Sur 7 Este 0 -- -- 94
2017-11-19 08:00:00 0 3 Este 7 Sudeste 0 -- -- 93
2017-11-19 07:00:00 0.3 0 Calma 5 Sudeste 0 -- -- 93
2017-11-19 06:00:00 0.8 2 Este 12 Este 0 -- -- 91
2017-11-19 05:00:00 1.4 3 Este 12 Sudeste 0 -- -- 91
2017-11-19 04:00:00 1.8 4 Sudeste 10 Sudeste 0 -- -- 91
2017-11-19 03:00:00 2.9 5 Sur 12 Este 0 -- -- 89
2017-11-19 02:00:00 5.1 7 Este 17 Este 0 -- -- 85
2017-11-19 01:00:00 5.7 10 Sudeste 18 Sudeste 0 -- -- 83
2017-11-19 00:00:00 6.2 8 Sudeste 15 Este 0 -- -- 80
2017-11-18 23:00:00 6.8 10 Sudeste 17 Este 0 -- -- 78
2017-11-18 22:00:00 6.9 11 Sudeste 15 Este 0 -- -- 77
2017-11-18 21:00:00 7.2 6 Sudeste 9 Norte 0 -- -- 74
2017-11-18 20:00:00 9.1 3 Norte 11 Noroeste 0 -- -- 69
2017-11-18 19:00:00 10.2 3 Nordeste 14 Norte 0 -- -- 65
2017-11-18 18:00:00 11.3 5 Noroeste 19 Noroeste 0 -- -- 63
2017-11-18 17:00:00 12.8 6 Oeste 23 Noroeste 0 -- -- 60
2017-11-18 16:00:00 14.4 12 Norte 23 Noroeste 0 -- -- 55
2017-11-18 15:00:00 15.4 9 Norte 24 Norte 0 -- -- 51
2017-11-18 14:00:00 15.3 15 Noroeste 28 Noroeste 0 -- -- 52
2017-11-18 13:00:00 14.9 14 Noroeste 23 Noroeste 0 -- -- 54
2017-11-18 12:00:00 13.4 4 Nordeste 15 Este 0 -- -- 58
2017-11-18 11:00:00 11.5 9 Este 19 Este 0 -- -- 64
2017-11-18 10:00:00 10 10 Este 21 Sudeste 0 -- -- 68
2017-11-18 09:00:00 7.8 11 Este 18 Este 0 -- -- 76
2017-11-18 08:00:00 7.5 12 Este 19 Este 0 -- -- 73
2017-11-18 07:00:00 7.1 10 Sudeste 16 Nordeste 0 -- -- 69
2017-11-18 06:00:00 8.2 9 Noroeste 22 Oeste 0 -- -- 66
2017-11-18 05:00:00 7.3 2 Noroeste 8 Sudeste 0 -- -- 69
2017-11-18 04:00:00 7.4 4 Nordeste 22 Norte 0 -- -- 68
2017-11-18 03:00:00 7.9 6 Este 18 Sudeste 0 -- -- 67
2017-11-18 02:00:00 8.8 9 Sudeste 21 Sudeste 0 -- -- 65
2017-11-18 01:00:00 9.1 12 Este 22 Este 0 -- -- 65
2017-11-18 00:00:00 9 13 Sudeste 25 Sudeste 0 -- -- 69
2017-11-17 23:00:00 9.5 10 Sudeste 26 Sudeste 0 -- -- 64
2017-11-17 22:00:00 10.3 14 Sudeste 23 Sudeste 0 -- -- 62
2017-11-17 21:00:00 10.5 11 Sudeste 18 Este 0 -- -- 60
2017-11-17 20:00:00 11.4 3 Sur 15 Nordeste 0 -- -- 56
2017-11-17 19:00:00 11.6 4 Sudeste 12 Este 0 -- -- 54
2017-11-17 18:00:00 13.3 5 Sudeste 13 Norte 0 -- -- 49
2017-11-17 17:00:00 15 6 Norte 13 Norte 0 -- -- 48
2017-11-17 16:00:00 15.5 4 Oeste 6 Sudoeste 0 -- -- 53
2017-11-17 15:00:00 14.8 2 Noroeste 5 Nordeste 0 -- -- 51
2017-11-17 14:00:00 13.2 4 Nordeste 7 Nordeste 0 -- -- 55
2017-11-17 13:00:00 10.8 2 Norte 6 Nordeste 0 -- -- 57
2017-11-17 12:00:00 8.5 4 Nordeste 6 Nordeste 0 -- -- 64
2017-11-17 11:00:00 5.6 2 Nordeste 5 Sudeste 0 -- -- 74
2017-11-17 10:00:00 4.3 3 Nordeste 6 Nordeste 0 -- -- 80
2017-11-17 09:00:00 1.3 0 Calma 8 Sur 0 -- -- 89
2017-11-17 08:00:00 0.5 3 Noroeste 9 Sudeste 0 -- -- 88
2017-11-17 07:00:00 1.8 0 Calma 6 Este 0 -- -- 83
2017-11-17 06:00:00 2.4 3 Sur 5 Sur 0 -- -- 83
2017-11-17 05:00:00 3.2 3 Sudoeste 7 Sudoeste 0 -- -- 80
2017-11-17 04:00:00 3.4 4 Sudoeste 6 Sudoeste 0 -- -- 80
2017-11-17 03:00:00 3.8 6 Sudeste 10 Sudeste 0 -- -- 79
2017-11-17 02:00:00 4.9 2 Este 4 Sudeste 0 -- -- 71
2017-11-17 01:00:00 6.1 4 Sudeste 6 Sudeste 0 -- -- 68
2017-11-17 00:00:00 7.1 3 Este 6 Norte 0 -- -- 64
2017-11-16 23:00:00 9 5 Este 12 Sudeste 0 -- -- 55
2017-11-16 22:00:00 10.3 4 Sur 9 Sudeste 0 -- -- 50
2017-11-16 21:00:00 11.7 3 Sudeste 8 Sudeste 0 -- -- 44
2017-11-16 20:00:00 10 4 Sudeste 8 Sudoeste 0 -- -- 52
2017-11-16 19:00:00 11.6 3 Sudoeste 12 Sudoeste 0 -- -- 47
2017-11-16 18:00:00 11.7 7 Sur 18 Sur 0 -- -- 52
2017-11-16 17:00:00 12.8 10 Sur 21 Sur 0 -- -- 51
2017-11-16 16:00:00 14.4 10 Sur 14 Sur 0 -- -- 48
2017-11-16 15:00:00 13.7 2 Nordeste 6 Nordeste 0 -- -- 52
2017-11-16 14:00:00 11.5 3 Nordeste 7 Este 0 -- -- 57
2017-11-16 13:00:00 9.4 3 Nordeste 6 Nordeste 0 -- -- 59
2017-11-16 12:00:00 6.6 3 Noroeste 6 Noroeste 0 -- -- 69
2017-11-16 11:00:00 4.8 3 Nordeste 10 Este 0 -- -- 76
2017-11-16 10:00:00 2.9 6 Sudeste 10 Este 0 -- -- 83
2017-11-16 09:00:00 -0.6 2 Sudeste 4 Sur 0 -- -- 95
2017-11-16 08:00:00 -1.2 2 Sur 4 Sudoeste 0 -- -- 94
2017-11-16 07:00:00 -1.1 0 Calma 4 Sudeste 0 -- -- 93
2017-11-16 06:00:00 -0.5 0 Calma 4 Sudeste 0 -- -- 91
2017-11-16 05:00:00 -0.2 0 Calma 6 Sudoeste 0 -- -- 92
2017-11-16 04:00:00 0.2 2 Este 5 Norte 0 -- -- 91
2017-11-16 03:00:00 0.3 4 Sudoeste 6 Oeste 0 -- -- 90
2017-11-16 02:00:00 0.6 3 Oeste 5 Oeste 0 -- -- 88
2017-11-16 01:00:00 2 3 Sudeste 5 Este 0 -- -- 83
2017-11-16 00:00:00 2.6 2 Sudeste 10 Oeste 0 -- -- 82
2017-11-15 23:00:00 3 3 Oeste 9 Sudoeste 0 -- -- 81
2017-11-15 22:00:00 3.4 2 Oeste 8 Sudoeste 0 -- -- 79
2017-11-15 21:00:00 4.6 2 Noroeste 6 Oeste 0 -- -- 74
2017-11-15 20:00:00 5.5 2 Sudoeste 5 Sur 0 -- -- 73
2017-11-15 19:00:00 6.8 3 Sudeste 8 Sur 0 -- -- 63
2017-11-15 18:00:00 8 7 Sur 11 Sur 0 -- -- 60
2017-11-15 17:00:00 10.8 4 Sur 8 Nordeste 0 -- -- 53
2017-11-15 16:00:00 11.7 5 Nordeste 9 Nordeste 0 -- -- 48
2017-11-15 15:00:00 11 3 Nordeste 6 Nordeste 0 -- -- 49
2017-11-15 14:00:00 9.9 3 Este 6 Este 0 -- -- 50
2017-11-15 13:00:00 8 3 Nordeste 5 Nordeste 0 -- -- 57
2017-11-15 12:00:00 5.6 3 Nordeste 7 Nordeste 0 -- -- 64
2017-11-15 11:00:00 3.7 4 Nordeste 8 Nordeste 0 -- -- 72
2017-11-15 10:00:00 1 2 Nordeste 4 Noroeste 0 -- -- 83
2017-11-15 09:00:00 -1.3 0 Calma 8 Sudeste 0 -- -- 89
2017-11-15 08:00:00 -1.7 2 Norte 8 Sudeste 0 -- -- 87
2017-11-15 07:00:00 -1.2 0 Calma 6 Sudeste 0 -- -- 85
2017-11-15 06:00:00 -0.2 0 Calma 9 Sudeste 0 -- -- 82
2017-11-15 05:00:00 0.3 8 Sudeste 14 Sudeste 0 -- -- 81
2017-11-15 04:00:00 0.1 0 Calma 8 Sudeste 0 -- -- 81
2017-11-15 03:00:00 0.2 0 Calma 10 Sudeste 0 -- -- 82
2017-11-15 02:00:00 1 2 Sudeste 12 Sudeste 0 -- -- 78
2017-11-15 01:00:00 2.3 5 Sudeste 10 Este 0 -- -- 72
2017-11-15 00:00:00 4 3 Sudeste 11 Sudeste 0 -- -- 64